Karlsruhe, North Dakota
Current Conditions -  °F | °C
As of 7:54 AM on Wednesday 26 Nov 2014 (Local Time) from KMOT Reporting Station
Overcast Overcast  
Wind Chill: -6°   Ceiling: 9000
Heat Index:   Visibility: 10mi
Dew Point: -1°   Wind: 5mph
Humidity: 84%   Direction: 350°N
Pressure: 30.33"   Gusts: NA
Location:  48.09°N, 100.62°W
Report Text: KMOT 261354Z 35004KT 10SM OVC090 M16/M18 A3033 RMK AO2 SNE27 SLP312 P0000 T11611183
Loading
Personal Weather Stations






























Interactive Weather Map New forecast layout! Learn more

10-Day Weather Forecast

Advertisements
Track Severe Weather on mobile